createdAt,value
2022-12-14T00:01:35.491Z,77.18
2022-12-14T00:04:02.104Z,73.07
2022-12-14T00:06:31.004Z,69.28
2022-12-14T00:09:00.553Z,69.85
2022-12-14T00:11:28.185Z,69.10
2022-12-14T00:13:57.584Z,69.80
2022-12-14T00:17:14.131Z,67.50
2022-12-14T00:19:40.767Z,70.97
2022-12-14T00:22:07.547Z,68.57
2022-12-14T00:24:34.294Z,70.00
2022-12-14T00:27:00.838Z,76.55
2022-12-14T00:29:27.602Z,74.43
2022-12-14T00:31:54.300Z,72.68
2022-12-14T00:34:21.476Z,73.85
2022-12-14T00:36:48.102Z,78.15
2022-12-14T00:39:14.783Z,76.63
2022-12-14T00:41:43.545Z,74.90
2022-12-14T00:44:10.129Z,73.10
2022-12-14T00:46:36.845Z,70.32
2022-12-14T00:49:03.427Z,74.07
2022-12-14T00:51:30.392Z,71.50
2022-12-14T00:54:00.235Z,68.32
2022-12-14T00:56:26.861Z,68.18
2022-12-14T00:58:54.341Z,75.32
2022-12-14T01:01:22.255Z,62.53
2022-12-14T01:03:49.646Z,64.68
2022-12-14T01:06:19.194Z,60.78
2022-12-14T01:08:46.790Z,50.70
2022-12-14T01:11:14.203Z,60.75
2022-12-14T01:13:41.693Z,51.28
2022-12-14T01:16:14.725Z,54.72
2022-12-14T01:18:43.081Z,54.95
2022-12-14T01:21:14.955Z,52.63
2022-12-14T01:23:42.873Z,39.03
2022-12-14T01:26:10.012Z,35.67
2022-12-14T01:28:37.006Z,31.75
2022-12-14T01:31:09.664Z,27.90
2022-12-14T01:33:36.859Z,25.58
2022-12-14T01:36:09.320Z,26.58
2022-12-14T01:38:36.570Z,28.58
2022-12-14T01:41:03.843Z,23.25
2022-12-14T01:43:50.620Z,21.58
2022-12-14T01:46:40.942Z,23.67
2022-12-14T01:49:16.983Z,23.27
2022-12-14T01:51:49.237Z,23.48
2022-12-14T01:56:45.143Z,23.48
2022-12-14T01:59:18.120Z,23.52
2022-12-14T02:01:46.141Z,20.52
2022-12-14T02:04:18.018Z,23.83
2022-12-14T02:06:48.503Z,23.80
2022-12-14T02:09:22.246Z,24.55
2022-12-14T02:12:07.343Z,26.10
2022-12-14T02:14:34.474Z,29.83
2022-12-14T02:17:01.826Z,28.10
2022-12-14T02:19:28.719Z,24.40
2022-12-14T02:22:13.641Z,23.40
2022-12-14T02:25:01.698Z,22.42
2022-12-14T02:27:59.593Z,21.70
2022-12-14T02:30:27.735Z,30.95
2022-12-14T02:33:45.203Z,43.47
2022-12-14T02:36:25.208Z,46.83
2022-12-14T02:39:07.979Z,26.80
2022-12-14T02:41:57.568Z,40.85
2022-12-14T02:44:42.454Z,30.00
2022-12-14T02:47:28.153Z,27.77
2022-12-14T02:50:10.975Z,17.35
2022-12-14T02:53:25.838Z,20.70
2022-12-14T02:55:54.816Z,19.73
2022-12-14T02:58:27.086Z,18.90
2022-12-14T03:03:22.406Z,19.08
2022-12-14T03:06:14.784Z,23.40
2022-12-14T03:08:44.351Z,21.38
2022-12-14T03:11:17.628Z,24.95
2022-12-14T03:13:52.313Z,26.00
2022-12-14T03:16:37.730Z,36.45
2022-12-14T03:19:13.639Z,79.47
2022-12-14T03:21:47.770Z,45.90
2022-12-14T03:24:21.110Z,57.88
2022-12-14T03:26:57.984Z,50.17
2022-12-14T03:29:38.924Z,27.23
2022-12-14T03:32:27.806Z,31.00
2022-12-14T03:35:00.882Z,31.73
2022-12-14T03:37:39.203Z,26.88
2022-12-14T03:40:12.536Z,21.98
2022-12-14T03:43:15.638Z,17.52
2022-12-14T03:45:48.910Z,21.00
2022-12-14T03:48:18.391Z,28.00
2022-12-14T03:51:11.355Z,38.50
2022-12-14T03:53:57.282Z,35.70
2022-12-14T03:56:48.311Z,47.80
2022-12-14T03:59:48.812Z,75.82
2022-12-14T04:02:40.600Z,53.47
2022-12-14T04:05:51.203Z,61.38
2022-12-14T04:08:40.326Z,43.10
2022-12-14T04:11:30.018Z,29.13
2022-12-14T04:14:32.989Z,30.75
2022-12-14T04:17:25.249Z,38.08
2022-12-14T04:20:04.334Z,35.40
2022-12-14T04:22:36.282Z,41.20
2022-12-14T04:25:56.589Z,44.15
2022-12-14T04:28:50.195Z,73.03
2022-12-14T04:31:20.629Z,45.70
2022-12-14T04:33:53.747Z,50.05
2022-12-14T04:36:29.479Z,83.32
2022-12-14T04:39:05.552Z,62.50
2022-12-14T04:41:36.658Z,56.33
2022-12-14T04:44:14.636Z,42.97
2022-12-14T04:46:43.079Z,61.70
2022-12-14T04:49:30.994Z,55.40
2022-12-14T04:52:18.763Z,61.47
2022-12-14T04:55:04.009Z,41.85
2022-12-14T04:57:45.318Z,37.85
2022-12-14T05:00:12.957Z,36.85
2022-12-14T05:02:39.709Z,36.80
2022-12-14T05:05:31.159Z,24.35
2022-12-14T05:08:10.062Z,28.35
2022-12-14T05:10:43.793Z,22.48
2022-12-14T05:13:18.876Z,30.00
2022-12-14T05:15:52.562Z,27.60
2022-12-14T05:18:19.907Z,23.33
2022-12-14T05:20:47.825Z,19.83
2022-12-14T05:23:15.766Z,21.02
2022-12-14T05:25:42.975Z,20.70
2022-12-14T05:28:13.374Z,20.48
2022-12-14T05:30:40.367Z,28.50
2022-12-14T05:33:07.131Z,30.52
2022-12-14T05:35:33.750Z,37.63
2022-12-14T05:38:00.564Z,40.42
2022-12-14T05:40:27.425Z,31.90
2022-12-14T05:43:04.879Z,38.08
2022-12-14T05:45:31.843Z,43.50
2022-12-14T05:47:58.609Z,36.60
2022-12-14T05:50:25.920Z,38.58
2022-12-14T05:52:53.274Z,35.80
2022-12-14T05:55:19.982Z,37.15
2022-12-14T05:57:46.756Z,36.70
2022-12-14T06:00:14.211Z,58.92
2022-12-14T06:02:40.941Z,55.05
2022-12-14T06:05:07.956Z,47.85
2022-12-14T06:07:34.704Z,52.92
2022-12-14T06:10:01.490Z,45.15
2022-12-14T06:12:28.454Z,48.35
2022-12-14T06:14:55.037Z,42.78
2022-12-14T06:17:21.626Z,42.17
2022-12-14T06:19:50.579Z,50.60
2022-12-14T06:22:18.013Z,43.33
2022-12-14T06:24:44.906Z,57.30
2022-12-14T06:27:11.599Z,52.20
2022-12-14T06:29:38.185Z,42.78
2022-12-14T06:32:05.022Z,52.22
2022-12-14T06:34:36.742Z,52.70
2022-12-14T06:37:06.452Z,62.97
2022-12-14T06:39:33.817Z,58.90
2022-12-14T06:42:00.666Z,70.93
2022-12-14T06:44:27.553Z,64.70
2022-12-14T06:46:54.263Z,67.25
2022-12-14T06:49:22.221Z,55.65
2022-12-14T06:51:49.103Z,59.20
2022-12-14T06:54:17.642Z,61.17
2022-12-14T06:56:46.582Z,57.25
2022-12-14T06:59:14.039Z,53.13
2022-12-14T07:01:41.420Z,52.45
2022-12-14T07:04:09.603Z,55.85
2022-12-14T07:06:39.543Z,53.58
2022-12-14T07:09:08.297Z,55.45
2022-12-14T07:11:35.038Z,59.35
2022-12-14T07:14:05.969Z,66.40
2022-12-14T07:16:34.441Z,86.53
2022-12-14T07:19:01.391Z,79.95
2022-12-14T07:21:28.273Z,81.40
2022-12-14T07:23:55.073Z,91.30
2022-12-14T07:26:24.933Z,94.22
2022-12-14T07:28:52.575Z,82.10
2022-12-14T07:31:25.344Z,89.10
2022-12-14T07:33:54.269Z,72.03
2022-12-14T07:36:26.006Z,61.75
2022-12-14T07:38:54.344Z,64.30
2022-12-14T07:41:25.897Z,66.07
2022-12-14T07:43:55.463Z,76.78
2022-12-14T07:46:26.352Z,62.95
2022-12-14T07:48:55.647Z,69.75
2022-12-14T07:51:25.401Z,73.72
2022-12-14T07:53:52.492Z,66.28
2022-12-14T07:56:22.044Z,75.50
2022-12-14T07:58:49.663Z,56.83
2022-12-14T08:01:22.537Z,67.47
2022-12-14T08:03:55.493Z,80.13
2022-12-14T08:06:23.693Z,75.53
2022-12-14T08:08:50.683Z,67.00
2022-12-14T08:11:18.373Z,71.72
2022-12-14T08:13:46.947Z,57.35
2022-12-14T08:16:15.733Z,57.15
2022-12-14T08:18:43.422Z,62.85
2022-12-14T08:21:11.935Z,58.00
2022-12-14T08:23:44.939Z,56.58
2022-12-14T08:26:12.036Z,57.35
2022-12-14T08:28:38.853Z,59.08
2022-12-14T08:31:11.200Z,65.90
2022-12-14T08:33:39.479Z,61.05
2022-12-14T08:36:12.411Z,53.00
2022-12-14T08:38:40.329Z,71.22
2022-12-14T08:41:09.898Z,69.70
2022-12-14T08:43:37.154Z,66.25
2022-12-14T08:46:04.917Z,64.13
2022-12-14T08:48:31.544Z,56.97
2022-12-14T08:51:09.606Z,71.05
2022-12-14T08:53:37.812Z,59.38
2022-12-14T08:56:11.082Z,68.28
2022-12-14T08:58:39.340Z,84.15
2022-12-14T09:01:16.134Z,63.60
2022-12-14T09:03:44.825Z,61.28
2022-12-14T09:06:14.534Z,57.13
2022-12-14T09:08:41.315Z,57.40
2022-12-14T09:11:12.698Z,55.45
2022-12-14T09:13:39.803Z,65.33
2022-12-14T09:16:10.624Z,50.25
2022-12-14T09:18:37.265Z,59.22
2022-12-14T09:21:04.216Z,52.17
2022-12-14T09:23:33.638Z,60.22
2022-12-14T09:26:25.823Z,67.25
2022-12-14T09:28:54.742Z,64.07
2022-12-14T09:31:23.973Z,43.80
2022-12-14T09:33:51.011Z,48.45
2022-12-14T09:36:20.733Z,48.30
2022-12-14T09:38:51.514Z,53.20
2022-12-14T09:42:01.394Z,58.10
2022-12-14T09:44:45.551Z,86.22
2022-12-14T09:47:38.009Z,59.33
2022-12-14T09:50:15.989Z,70.85
2022-12-14T09:52:47.382Z,67.28
2022-12-14T09:55:32.405Z,60.23
2022-12-14T09:58:08.475Z,63.28
2022-12-14T10:00:40.762Z,52.72
2022-12-14T10:06:13.825Z,46.05
2022-12-14T10:08:55.359Z,37.33
2022-12-14T10:11:52.560Z,43.63
2022-12-14T10:14:44.071Z,39.30
2022-12-14T10:17:46.792Z,44.95
2022-12-14T10:20:23.350Z,42.58
2022-12-14T10:22:55.612Z,34.95
2022-12-14T10:25:29.437Z,40.72
2022-12-14T10:28:10.833Z,43.65
2022-12-14T10:30:38.165Z,51.58
2022-12-14T10:33:23.121Z,37.75
2022-12-14T10:35:54.070Z,48.20
2022-12-14T10:38:33.165Z,46.83
2022-12-14T10:41:08.605Z,52.97
2022-12-14T10:43:40.954Z,38.65
2022-12-14T10:46:13.647Z,38.40
2022-12-14T10:49:13.043Z,33.90
2022-12-14T10:51:47.053Z,38.47
2022-12-14T10:54:29.960Z,41.75
2022-12-14T10:56:56.925Z,36.60
2022-12-14T10:59:25.800Z,31.63
2022-12-14T11:02:05.012Z,46.75
2022-12-14T11:04:40.031Z,36.03
2022-12-14T11:07:09.278Z,36.42
2022-12-14T11:09:37.281Z,31.27
2022-12-14T11:12:08.977Z,31.52
2022-12-14T11:14:37.381Z,37.05
2022-12-14T11:17:04.470Z,55.33
2022-12-14T11:19:31.281Z,58.03
2022-12-14T11:22:22.276Z,50.60
2022-12-14T11:24:49.462Z,30.13
2022-12-14T11:27:21.436Z,33.55
2022-12-14T11:29:50.655Z,29.90
2022-12-14T11:32:24.388Z,39.70
2022-12-14T11:34:57.790Z,31.05
2022-12-14T11:37:26.405Z,34.30
2022-12-14T11:39:57.919Z,28.30
2022-12-14T11:42:26.142Z,34.60
2022-12-14T11:44:53.911Z,23.17
2022-12-14T11:47:26.559Z,34.05
2022-12-14T11:49:54.799Z,38.97
2022-12-14T11:52:42.676Z,28.17
2022-12-14T11:55:14.236Z,31.15
2022-12-14T11:57:54.401Z,23.33
2022-12-14T12:00:23.834Z,21.65
2022-12-14T12:03:20.038Z,25.63
2022-12-14T12:05:49.572Z,27.90
2022-12-14T12:08:29.499Z,30.00
2022-12-14T12:11:03.193Z,34.30
2022-12-14T12:13:32.054Z,28.42
2022-12-14T12:16:02.031Z,34.65
2022-12-14T12:18:39.285Z,32.45
2022-12-14T12:21:15.864Z,25.52
2022-12-14T12:24:07.930Z,23.77
2022-12-14T12:27:11.906Z,25.98
2022-12-14T12:29:47.583Z,26.40
2022-12-14T12:32:29.263Z,23.20
2022-12-14T12:35:12.353Z,21.58
2022-12-14T12:38:06.908Z,18.23
2022-12-14T12:40:41.241Z,22.42
2022-12-14T12:43:18.992Z,28.65
2022-12-14T12:45:55.480Z,25.35
2022-12-14T12:48:32.840Z,25.30
2022-12-14T12:51:10.993Z,20.92
2022-12-14T12:53:44.335Z,13.57
2022-12-14T12:56:15.800Z,18.33
2022-12-14T12:58:50.649Z,23.23
2022-12-14T13:01:37.981Z,21.15
2022-12-14T13:04:15.592Z,20.55
2022-12-14T13:07:06.285Z,24.27
2022-12-14T13:09:48.745Z,19.42
2022-12-14T13:14:51.296Z,17.17
2022-12-14T13:17:49.601Z,18.70
2022-12-14T13:20:22.772Z,25.08
2022-12-14T13:22:50.416Z,23.38
2022-12-14T13:25:28.904Z,22.77
2022-12-14T13:27:58.394Z,27.23
2022-12-14T13:30:43.329Z,19.70
2022-12-14T13:33:31.037Z,14.68
2022-12-14T13:39:38.544Z,16.88
2022-12-14T13:42:18.914Z,13.63
2022-12-14T13:44:58.356Z,23.83
2022-12-14T13:47:41.624Z,21.77
2022-12-14T13:50:37.608Z,25.13
2022-12-14T13:53:18.792Z,23.80
2022-12-14T13:55:52.986Z,25.15
2022-12-14T13:58:31.968Z,26.17
2022-12-14T14:01:14.120Z,38.30
2022-12-14T14:03:48.014Z,28.50
2022-12-14T14:06:36.773Z,24.83
2022-12-14T14:09:34.087Z,26.42
2022-12-14T14:12:24.744Z,28.65
2022-12-14T14:14:58.816Z,24.27
2022-12-14T14:17:30.346Z,31.88
2022-12-14T14:19:58.041Z,29.35
2022-12-14T14:22:27.506Z,25.25
2022-12-14T14:25:16.938Z,21.00
2022-12-14T14:27:51.066Z,21.95
2022-12-14T14:30:32.932Z,24.90
2022-12-14T14:33:35.956Z,23.42
2022-12-14T14:35:49.871Z,24.00
2022-12-14T14:38:30.572Z,26.70
2022-12-14T14:41:18.924Z,25.02
2022-12-14T14:44:20.567Z,23.92
2022-12-14T14:46:50.358Z,24.58
2022-12-14T14:49:34.246Z,24.77
2022-12-14T14:52:37.848Z,23.67
2022-12-14T14:55:52.074Z,21.50
2022-12-14T14:58:26.798Z,20.42
2022-12-14T15:01:19.892Z,29.95
2022-12-14T15:04:06.051Z,31.90
2022-12-14T15:06:40.191Z,22.35
2022-12-14T15:09:09.579Z,24.33
2022-12-14T15:12:00.206Z,28.77
2022-12-14T15:14:48.943Z,29.33
2022-12-14T15:17:22.776Z,37.25
2022-12-14T15:19:53.566Z,39.42
2022-12-14T15:22:24.735Z,39.30
2022-12-14T15:24:55.878Z,38.00
2022-12-14T15:27:36.309Z,41.90
2022-12-14T15:30:11.866Z,46.38
2022-12-14T15:33:09.546Z,49.85
2022-12-14T15:35:39.901Z,45.03
2022-12-14T15:38:09.104Z,39.88
2022-12-14T15:40:36.017Z,49.60
2022-12-14T15:43:16.774Z,53.88
2022-12-14T15:45:47.017Z,49.67
2022-12-14T15:48:15.873Z,51.97
2022-12-14T15:50:48.569Z,57.63
2022-12-14T15:53:24.936Z,54.58
2022-12-14T15:55:59.845Z,50.47
2022-12-14T15:58:38.963Z,53.55
2022-12-14T16:01:30.635Z,44.42
2022-12-14T16:04:04.927Z,46.77
2022-12-14T16:06:38.142Z,51.05
2022-12-14T16:09:31.624Z,47.17
2022-12-14T16:12:14.854Z,52.17
2022-12-14T16:14:56.870Z,53.13
2022-12-14T16:17:29.958Z,59.47
2022-12-14T16:20:00.963Z,56.20
2022-12-14T16:22:30.782Z,58.47
2022-12-14T16:25:07.409Z,56.08
2022-12-14T16:27:43.056Z,56.42
2022-12-14T16:30:23.691Z,36.22
2022-12-14T16:32:54.332Z,35.85
2022-12-14T16:35:26.134Z,34.25
2022-12-14T16:37:58.321Z,40.60
2022-12-14T16:40:39.686Z,30.27
2022-12-14T16:43:23.396Z,33.03
2022-12-14T16:46:05.410Z,39.25
2022-12-14T16:48:33.591Z,39.25
2022-12-14T16:51:33.026Z,34.95
2022-12-14T16:54:06.437Z,34.80
2022-12-14T16:56:45.562Z,65.15
2022-12-14T16:59:23.341Z,39.75
2022-12-14T17:01:51.259Z,43.22
2022-12-14T17:04:20.486Z,40.88
2022-12-14T17:06:51.587Z,58.40
2022-12-14T17:09:22.174Z,42.17
2022-12-14T17:11:50.696Z,47.90
2022-12-14T17:14:18.370Z,42.58
2022-12-14T17:16:50.337Z,34.97
2022-12-14T17:19:26.644Z,42.28
2022-12-14T17:21:54.636Z,43.10
2022-12-14T17:24:22.568Z,37.20
2022-12-14T17:26:50.660Z,27.70
2022-12-14T17:29:23.331Z,36.10
2022-12-14T17:31:52.363Z,38.47
2022-12-14T17:34:19.346Z,49.42
2022-12-14T17:36:46.560Z,49.53
2022-12-14T17:39:13.619Z,53.95
2022-12-14T17:41:45.712Z,39.53
2022-12-14T17:44:17.229Z,38.75
2022-12-14T17:46:45.705Z,34.20
2022-12-14T17:49:14.052Z,38.60
2022-12-14T17:51:43.641Z,36.60
2022-12-14T17:54:18.508Z,40.35
2022-12-14T17:56:46.436Z,45.30
2022-12-14T17:59:13.725Z,52.67
2022-12-14T18:01:41.774Z,46.00
2022-12-14T18:04:09.093Z,52.92
2022-12-14T18:06:36.372Z,63.97
2022-12-14T18:09:05.642Z,47.88
2022-12-14T18:11:32.444Z,61.00
2022-12-14T18:13:59.531Z,62.45
2022-12-14T18:16:28.859Z,62.15
2022-12-14T18:18:56.291Z,62.28
2022-12-14T18:21:26.258Z,94.97
2022-12-14T18:23:53.068Z,113.07
2022-12-14T18:26:21.934Z,74.18
2022-12-14T18:28:53.165Z,71.80
2022-12-14T18:31:25.267Z,66.65
2022-12-14T18:33:51.980Z,63.17
2022-12-14T18:36:21.435Z,58.53
2022-12-14T18:38:49.640Z,58.03
2022-12-14T18:41:19.463Z,75.85
2022-12-14T18:43:47.200Z,76.20
2022-12-14T18:46:14.376Z,83.47
2022-12-14T18:48:42.465Z,76.47
2022-12-14T18:51:23.117Z,74.43
2022-12-14T18:53:51.633Z,76.38
2022-12-14T18:56:19.470Z,75.93
2022-12-14T18:58:47.732Z,77.43
2022-12-14T19:01:18.111Z,74.38
2022-12-14T19:03:45.551Z,63.47
2022-12-14T19:06:43.615Z,60.75
2022-12-14T19:09:04.721Z,47.97
2022-12-14T19:11:40.448Z,48.55
2022-12-14T19:14:07.677Z,42.58
2022-12-14T19:16:34.673Z,47.08
2022-12-14T19:19:04.024Z,60.95
2022-12-14T19:21:31.776Z,45.35
2022-12-14T19:24:02.194Z,41.50
2022-12-14T19:26:29.591Z,36.55
2022-12-14T19:28:56.645Z,38.20
2022-12-14T19:31:24.070Z,30.20
2022-12-14T19:33:51.025Z,42.65
2022-12-14T19:36:18.306Z,38.67
2022-12-14T19:38:49.055Z,40.80
2022-12-14T19:41:20.743Z,37.78
2022-12-14T19:43:48.342Z,41.88
2022-12-14T19:46:16.713Z,42.90
2022-12-14T19:48:44.525Z,54.47
2022-12-14T19:51:13.289Z,51.60
2022-12-14T19:53:45.823Z,39.67
2022-12-14T19:56:17.114Z,33.50
2022-12-14T19:58:44.752Z,29.92
2022-12-14T20:01:14.222Z,36.75
2022-12-14T20:03:42.010Z,36.22
2022-12-14T20:06:09.271Z,39.53
2022-12-14T20:08:36.870Z,37.05
2022-12-14T20:11:10.433Z,38.47
2022-12-14T20:13:38.147Z,31.35
2022-12-14T20:16:05.251Z,35.65
2022-12-14T20:18:32.420Z,34.60
2022-12-14T20:21:07.690Z,31.98
2022-12-14T20:23:39.819Z,35.85
2022-12-14T20:26:13.887Z,40.70
2022-12-14T20:28:41.057Z,29.48
2022-12-14T20:31:10.688Z,31.20
2022-12-14T20:33:38.755Z,33.47
2022-12-14T20:36:06.415Z,32.20
2022-12-14T20:38:36.664Z,27.48
2022-12-14T20:41:08.163Z,32.90
2022-12-14T20:43:36.987Z,37.13
2022-12-14T20:46:05.588Z,37.55
2022-12-14T20:48:33.152Z,33.80
2022-12-14T20:51:02.195Z,33.45
2022-12-14T20:53:30.625Z,25.95
2022-12-14T20:56:03.266Z,38.42
2022-12-14T21:00:56.673Z,39.67
2022-12-14T21:03:23.552Z,32.22
2022-12-14T21:05:51.303Z,31.00
2022-12-14T21:08:18.081Z,35.50
2022-12-14T21:10:44.688Z,33.58
2022-12-14T21:13:11.595Z,34.20
2022-12-14T21:15:38.564Z,34.80
2022-12-14T21:18:05.463Z,34.80
2022-12-14T21:20:32.054Z,28.63
2022-12-14T21:22:58.728Z,29.73
2022-12-14T21:25:25.659Z,34.70
2022-12-14T21:27:52.530Z,31.75
2022-12-14T21:30:19.340Z,29.27
2022-12-14T21:32:46.188Z,34.72
2022-12-14T21:35:17.375Z,27.75
2022-12-14T21:37:44.122Z,29.45
2022-12-14T21:40:30.939Z,31.88
2022-12-14T21:42:57.589Z,27.38
2022-12-14T21:45:24.375Z,29.27
2022-12-14T21:47:51.103Z,30.95
2022-12-14T21:50:17.835Z,28.65
2022-12-14T21:52:44.684Z,37.33
2022-12-14T21:55:11.401Z,29.17
2022-12-14T21:57:56.703Z,34.53
2022-12-14T22:00:23.493Z,46.20
2022-12-14T22:02:50.284Z,26.02
2022-12-14T22:05:17.289Z,30.52
2022-12-14T22:07:44.219Z,29.23
2022-12-14T22:10:11.180Z,32.58
2022-12-14T22:12:38.323Z,29.45
2022-12-14T22:15:05.610Z,27.73
2022-12-14T22:17:32.400Z,29.77
2022-12-14T22:19:59.496Z,24.40
2022-12-14T22:22:26.202Z,31.10
2022-12-14T22:24:52.817Z,27.60
2022-12-14T22:27:20.434Z,30.33
2022-12-14T22:29:47.256Z,27.73
2022-12-14T22:32:14.975Z,29.08
2022-12-14T22:34:42.042Z,25.33
2022-12-14T22:37:09.044Z,28.65
2022-12-14T22:39:35.992Z,25.17
2022-12-14T22:42:02.691Z,29.83
2022-12-14T22:44:29.683Z,26.08
2022-12-14T22:46:58.543Z,25.67
2022-12-14T22:49:25.485Z,30.42
2022-12-14T22:51:52.234Z,33.35
2022-12-14T22:54:23.269Z,31.98
2022-12-14T22:56:57.795Z,25.40
2022-12-14T22:59:36.428Z,33.10
2022-12-14T23:02:04.071Z,29.42
2022-12-14T23:04:31.116Z,32.25
2022-12-14T23:06:57.846Z,26.45
2022-12-14T23:09:43.053Z,28.70
2022-12-14T23:12:28.591Z,33.60
2022-12-14T23:15:14.609Z,34.00
2022-12-14T23:18:00.172Z,30.77
2022-12-14T23:20:45.963Z,25.50
2022-12-14T23:23:31.721Z,33.45
2022-12-14T23:26:20.823Z,31.92
2022-12-14T23:29:06.631Z,35.50
2022-12-14T23:31:52.215Z,45.67
2022-12-14T23:34:37.552Z,39.30
2022-12-14T23:37:22.859Z,38.83
2022-12-14T23:40:08.225Z,38.60
2022-12-14T23:42:53.467Z,43.05
2022-12-14T23:45:38.720Z,42.28
2022-12-14T23:48:24.057Z,35.15
2022-12-14T23:51:09.202Z,42.33
2022-12-14T23:53:54.446Z,41.97
2022-12-14T23:56:40.226Z,41.30
2022-12-14T23:59:31.591Z,40.25
